createdAt,value
2017-12-22T00:01:28.107Z,25.93
2017-12-22T00:04:10.854Z,13.10
2017-12-22T00:06:53.308Z,19.00
2017-12-22T00:09:35.751Z,15.03
2017-12-22T00:12:18.481Z,15.37
2017-12-22T00:15:01.034Z,16.93
2017-12-22T00:17:45.567Z,25.07
2017-12-22T00:20:35.613Z,25.43
2017-12-22T00:23:18.242Z,17.53
2017-12-22T00:26:07.594Z,19.60
2017-12-22T00:28:50.450Z,14.60
2017-12-22T00:31:33.300Z,12.90
2017-12-22T00:34:16.650Z,34.60
2017-12-22T00:36:59.478Z,11.37
2017-12-22T00:39:42.164Z,14.63
2017-12-22T00:42:24.891Z,29.33
2017-12-22T00:45:08.379Z,22.67
2017-12-22T00:47:51.316Z,19.13
2017-12-22T00:50:33.906Z,20.43
2017-12-22T00:53:16.469Z,23.40
2017-12-22T00:55:59.034Z,22.27
2017-12-22T00:58:41.491Z,16.10
2017-12-22T01:01:24.059Z,12.23
2017-12-22T01:04:06.783Z,14.37
2017-12-22T01:06:49.414Z,12.23
2017-12-22T01:09:32.927Z,14.50
2017-12-22T01:12:15.542Z,14.90
2017-12-22T01:14:58.198Z,16.83
2017-12-22T01:17:46.536Z,17.67
2017-12-22T01:20:31.222Z,37.23
2017-12-22T01:23:20.200Z,33.17
2017-12-22T01:26:02.807Z,14.40
2017-12-22T01:28:46.480Z,14.17
2017-12-22T01:31:29.410Z,29.30
2017-12-22T01:34:12.333Z,19.87
2017-12-22T01:36:56.525Z,38.70
2017-12-22T01:39:31.457Z,14.83
2017-12-22T01:42:14.030Z,20.40
2017-12-22T01:44:56.555Z,29.47
2017-12-22T01:47:39.229Z,9.50
2017-12-22T01:50:21.986Z,22.50
2017-12-22T01:53:04.721Z,15.93
2017-12-22T01:55:47.470Z,12.60
2017-12-22T01:58:30.923Z,34.30
2017-12-22T02:01:13.847Z,24.27
2017-12-22T02:03:56.874Z,16.63
2017-12-22T02:06:51.614Z,27.97
2017-12-22T02:09:33.955Z,16.90
2017-12-22T02:12:16.798Z,19.40
2017-12-22T02:14:59.855Z,11.43
2017-12-22T02:17:42.887Z,19.03
2017-12-22T02:20:27.304Z,12.20
2017-12-22T02:23:10.193Z,17.80
2017-12-22T02:25:52.691Z,16.87
2017-12-22T02:28:42.707Z,12.63
2017-12-22T02:31:25.411Z,7.30
2017-12-22T02:34:08.559Z,10.07
2017-12-22T02:36:51.067Z,13.07
2017-12-22T02:39:33.685Z,16.60
2017-12-22T02:42:16.322Z,9.13
2017-12-22T02:44:58.897Z,11.47
2017-12-22T02:47:41.389Z,16.30
2017-12-22T02:50:23.906Z,10.20
2017-12-22T02:53:06.715Z,10.90
2017-12-22T02:55:49.223Z,12.63
2017-12-22T02:58:31.761Z,13.70
2017-12-22T03:01:14.399Z,10.20
2017-12-22T03:03:57.447Z,13.43
2017-12-22T03:06:39.611Z,13.80
2017-12-22T03:09:22.095Z,14.20
2017-12-22T03:12:04.810Z,12.50
2017-12-22T03:14:47.402Z,13.87
2017-12-22T03:17:30.205Z,12.50
2017-12-22T03:20:12.767Z,12.97
2017-12-22T03:22:55.578Z,13.63
2017-12-22T03:25:44.391Z,13.73
2017-12-22T03:28:32.742Z,11.77
2017-12-22T03:31:15.365Z,19.37
2017-12-22T03:33:59.486Z,20.40
2017-12-22T03:36:44.203Z,15.03
2017-12-22T03:39:27.982Z,15.37
2017-12-22T03:42:10.815Z,13.17
2017-12-22T03:44:53.406Z,14.37
2017-12-22T03:47:35.903Z,18.07
2017-12-22T03:50:18.383Z,14.93
2017-12-22T03:53:01.134Z,10.80
2017-12-22T03:55:43.570Z,14.00
2017-12-22T03:58:25.979Z,16.47
2017-12-22T04:01:08.798Z,13.60
2017-12-22T04:04:06.006Z,11.57
2017-12-22T04:06:54.542Z,10.87
2017-12-22T04:09:37.487Z,12.67
2017-12-22T04:12:20.377Z,16.20
2017-12-22T04:15:02.862Z,15.37
2017-12-22T04:17:45.889Z,16.53
2017-12-22T04:20:28.250Z,13.10
2017-12-22T04:23:10.951Z,17.17
2017-12-22T04:25:53.502Z,14.30
2017-12-22T04:28:36.100Z,16.70
2017-12-22T04:31:18.782Z,21.37
2017-12-22T04:34:02.434Z,15.53
2017-12-22T04:36:45.362Z,22.17
2017-12-22T04:39:28.282Z,14.30
2017-12-22T04:42:10.967Z,16.97
2017-12-22T04:44:53.573Z,24.20
2017-12-22T04:47:37.053Z,17.80
2017-12-22T04:50:19.935Z,16.47
2017-12-22T04:53:02.425Z,14.70
2017-12-22T04:55:45.000Z,17.40
2017-12-22T04:58:27.842Z,23.30
2017-12-22T05:01:18.378Z,17.63
2017-12-22T05:04:01.122Z,19.87
2017-12-22T05:06:43.866Z,16.83
2017-12-22T05:09:26.741Z,17.53
2017-12-22T05:12:09.354Z,18.77
2017-12-22T05:14:51.893Z,22.17
2017-12-22T05:17:34.577Z,25.93
2017-12-22T05:20:17.130Z,19.23
2017-12-22T05:23:00.506Z,15.77
2017-12-22T05:25:43.378Z,23.60
2017-12-22T05:28:25.907Z,26.83
2017-12-22T05:31:08.673Z,34.80
2017-12-22T05:33:52.134Z,61.03
2017-12-22T05:36:34.899Z,69.67
2017-12-22T05:39:17.592Z,37.80
2017-12-22T05:42:01.122Z,28.00
2017-12-22T05:44:44.118Z,39.60
2017-12-22T05:47:26.520Z,39.83
2017-12-22T05:50:09.542Z,26.47
2017-12-22T05:52:52.549Z,37.93
2017-12-22T05:55:35.377Z,31.50
2017-12-22T05:58:18.203Z,22.27
2017-12-22T06:01:01.190Z,27.70
2017-12-22T06:03:43.907Z,43.43
2017-12-22T06:06:26.701Z,38.00
2017-12-22T06:09:09.132Z,80.30
2017-12-22T06:11:51.697Z,46.47
2017-12-22T06:14:34.331Z,66.03
2017-12-22T06:17:16.936Z,39.03
2017-12-22T06:19:59.656Z,28.10
2017-12-22T06:22:42.304Z,39.47
2017-12-22T06:25:25.138Z,48.27
2017-12-22T06:28:07.872Z,55.47
2017-12-22T06:30:50.509Z,47.13
2017-12-22T06:33:33.098Z,36.70
2017-12-22T06:36:15.809Z,16.50
2017-12-22T06:38:58.522Z,37.67
2017-12-22T06:41:41.181Z,33.97
2017-12-22T06:44:24.018Z,49.70
2017-12-22T06:47:13.693Z,41.83
2017-12-22T06:49:56.767Z,106.80
2017-12-22T06:52:39.316Z,71.03
2017-12-22T06:55:21.961Z,64.07
2017-12-22T06:58:04.537Z,63.57
2017-12-22T07:00:48.105Z,33.83
2017-12-22T07:03:30.958Z,32.03
2017-12-22T07:06:14.449Z,42.80
2017-12-22T07:09:03.367Z,20.83
2017-12-22T07:11:46.878Z,56.90
2017-12-22T07:14:29.781Z,37.83
2017-12-22T07:17:12.360Z,54.73
2017-12-22T07:19:55.066Z,48.63
2017-12-22T07:22:37.679Z,17.40
2017-12-22T07:25:24.247Z,43.63
2017-12-22T07:28:07.054Z,39.23
2017-12-22T07:30:49.609Z,42.57
2017-12-22T07:33:32.069Z,30.00
2017-12-22T07:36:14.650Z,61.17
2017-12-22T07:38:58.975Z,31.27
2017-12-22T07:41:41.959Z,39.43
2017-12-22T07:44:24.470Z,28.73
2017-12-22T07:47:07.122Z,32.93
2017-12-22T07:49:57.030Z,14.97
2017-12-22T07:52:39.447Z,61.03
2017-12-22T07:55:22.091Z,80.10
2017-12-22T07:58:04.730Z,66.13
2017-12-22T08:00:47.580Z,59.83
2017-12-22T08:03:30.107Z,35.50
2017-12-22T08:06:12.697Z,28.23
2017-12-22T08:08:55.319Z,77.57
2017-12-22T08:11:37.850Z,96.43
2017-12-22T08:14:20.299Z,40.27
2017-12-22T08:17:03.018Z,73.93
2017-12-22T08:19:45.650Z,40.23
2017-12-22T08:22:28.332Z,57.57
2017-12-22T08:25:10.802Z,34.40
2017-12-22T08:27:53.518Z,62.80
2017-12-22T08:30:36.087Z,45.83
2017-12-22T08:33:26.333Z,66.90
2017-12-22T08:36:09.261Z,97.87
2017-12-22T08:38:51.719Z,49.27
2017-12-22T08:41:34.304Z,54.07
2017-12-22T08:44:17.046Z,56.20
2017-12-22T08:46:59.718Z,21.20
2017-12-22T08:49:42.291Z,31.10
2017-12-22T08:52:24.932Z,30.13
2017-12-22T08:55:07.556Z,27.70
2017-12-22T08:57:50.158Z,21.40
2017-12-22T09:00:32.906Z,21.33
2017-12-22T09:03:15.510Z,28.00
2017-12-22T09:05:58.182Z,24.87
2017-12-22T09:08:40.831Z,28.47
2017-12-22T09:11:23.435Z,23.27
2017-12-22T09:14:06.952Z,29.50
2017-12-22T09:17:00.951Z,26.90
2017-12-22T09:19:43.471Z,26.53
2017-12-22T09:22:27.100Z,23.40
2017-12-22T09:25:09.947Z,21.83
2017-12-22T09:27:53.634Z,26.40
2017-12-22T09:30:36.587Z,23.37
2017-12-22T09:33:19.207Z,26.23
2017-12-22T09:36:01.733Z,25.37
2017-12-22T09:38:44.399Z,20.30
2017-12-22T09:41:26.898Z,22.67
2017-12-22T09:44:09.500Z,16.33
2017-12-22T09:46:59.138Z,24.57
2017-12-22T09:49:43.457Z,25.40
2017-12-22T09:52:26.351Z,20.50
2017-12-22T09:55:08.847Z,27.20
2017-12-22T09:57:51.391Z,31.90
2017-12-22T10:00:35.790Z,26.83
2017-12-22T10:03:18.618Z,28.23
2017-12-22T10:06:02.141Z,24.73
2017-12-22T10:08:53.134Z,23.43
2017-12-22T10:11:35.668Z,28.43
2017-12-22T10:14:18.324Z,25.00
2017-12-22T10:17:00.508Z,24.00
2017-12-22T10:19:43.019Z,19.13
2017-12-22T10:22:25.728Z,28.80
2017-12-22T10:25:09.074Z,31.33
2017-12-22T10:27:51.892Z,26.33
2017-12-22T10:30:35.146Z,25.40
2017-12-22T10:33:21.802Z,23.20
2017-12-22T10:36:04.601Z,30.50
2017-12-22T10:38:47.457Z,37.20
2017-12-22T10:41:30.045Z,27.20
2017-12-22T10:44:13.322Z,34.90
2017-12-22T10:46:56.238Z,31.53
2017-12-22T10:49:38.898Z,33.03
2017-12-22T10:52:21.430Z,31.73
2017-12-22T10:55:04.080Z,24.90
2017-12-22T10:57:46.682Z,30.57
2017-12-22T11:00:29.289Z,26.80
2017-12-22T11:03:12.222Z,30.13
2017-12-22T11:05:54.638Z,30.53
2017-12-22T11:08:37.056Z,24.67
2017-12-22T11:11:19.682Z,28.50
2017-12-22T11:14:02.235Z,27.00
2017-12-22T11:16:44.758Z,35.67
2017-12-22T11:19:27.339Z,28.70
2017-12-22T11:22:09.960Z,48.17
2017-12-22T11:24:52.464Z,25.60
2017-12-22T11:27:35.013Z,32.27
2017-12-22T11:30:17.607Z,25.47
2017-12-22T11:33:00.232Z,32.43
2017-12-22T11:35:42.806Z,28.67
2017-12-22T11:38:25.563Z,22.37
2017-12-22T11:41:08.051Z,34.37
2017-12-22T11:43:50.775Z,25.77
2017-12-22T11:46:34.082Z,29.80
2017-12-22T11:49:16.861Z,28.50
2017-12-22T11:51:59.504Z,25.40
2017-12-22T11:54:44.551Z,26.90
2017-12-22T11:57:26.747Z,32.50
2017-12-22T12:00:09.452Z,24.30
2017-12-22T12:02:52.130Z,19.67
2017-12-22T12:05:34.803Z,31.20
2017-12-22T12:08:17.250Z,36.00
2017-12-22T12:10:59.822Z,25.83
2017-12-22T12:13:42.417Z,33.00
2017-12-22T12:16:25.086Z,24.10
2017-12-22T12:19:07.776Z,21.30
2017-12-22T12:21:50.248Z,26.10
2017-12-22T12:24:33.129Z,20.33
2017-12-22T12:27:15.515Z,19.67
2017-12-22T12:29:58.102Z,23.53
2017-12-22T12:32:40.598Z,25.43
2017-12-22T12:35:23.171Z,18.43
2017-12-22T12:38:05.629Z,23.90
2017-12-22T12:40:48.227Z,23.33
2017-12-22T12:43:30.768Z,25.77
2017-12-22T12:46:13.311Z,28.30
2017-12-22T12:48:56.146Z,32.83
2017-12-22T12:51:38.671Z,26.70
2017-12-22T12:54:21.594Z,23.83
2017-12-22T12:57:04.774Z,22.50
2017-12-22T12:59:47.856Z,23.83
2017-12-22T13:02:32.112Z,25.57
2017-12-22T13:05:14.966Z,20.47
2017-12-22T13:07:57.523Z,19.37
2017-12-22T13:10:40.159Z,20.83
2017-12-22T13:13:22.787Z,27.43
2017-12-22T13:16:05.555Z,24.07
2017-12-22T13:18:48.081Z,20.20
2017-12-22T13:21:30.801Z,21.40
2017-12-22T13:24:13.462Z,20.80
2017-12-22T13:26:56.255Z,20.27
2017-12-22T13:29:38.556Z,22.17
2017-12-22T13:32:21.560Z,17.70
2017-12-22T13:35:04.741Z,14.60
2017-12-22T13:37:47.685Z,17.53
2017-12-22T13:40:30.538Z,18.47
2017-12-22T13:43:13.524Z,16.93
2017-12-22T13:46:10.044Z,23.30
2017-12-22T13:48:52.922Z,20.67
2017-12-22T13:51:35.687Z,14.20
2017-12-22T13:54:18.433Z,20.67
2017-12-22T13:57:01.204Z,18.00
2017-12-22T13:59:43.758Z,17.63
2017-12-22T14:02:26.546Z,16.90
2017-12-22T14:05:09.050Z,18.30
2017-12-22T14:07:51.664Z,12.73
2017-12-22T14:10:34.558Z,15.63
2017-12-22T14:13:17.291Z,16.20
2017-12-22T14:16:00.093Z,15.33
2017-12-22T14:18:46.651Z,16.50
2017-12-22T14:21:29.419Z,13.87
2017-12-22T14:24:12.042Z,15.83
2017-12-22T14:26:54.938Z,15.50
2017-12-22T14:29:37.023Z,14.73
2017-12-22T14:32:19.868Z,15.07
2017-12-22T14:35:02.787Z,15.83
2017-12-22T14:37:50.520Z,15.80
2017-12-22T14:40:32.609Z,12.93
2017-12-22T14:43:15.494Z,23.47
2017-12-22T14:46:05.276Z,16.27
2017-12-22T14:48:48.181Z,20.80
2017-12-22T14:51:30.957Z,19.27
2017-12-22T14:54:13.540Z,22.87
2017-12-22T14:56:56.170Z,16.10
2017-12-22T14:59:38.798Z,15.90
2017-12-22T15:02:21.610Z,13.30
2017-12-22T15:05:03.992Z,14.83
2017-12-22T15:07:46.927Z,19.97
2017-12-22T15:10:29.312Z,22.70
2017-12-22T15:13:11.794Z,16.57
2017-12-22T15:15:54.415Z,15.13
2017-12-22T15:18:37.123Z,12.60
2017-12-22T15:21:19.979Z,15.33
2017-12-22T15:24:08.577Z,22.40
2017-12-22T15:26:51.330Z,15.23
2017-12-22T15:29:34.066Z,27.13
2017-12-22T15:32:17.903Z,20.90
2017-12-22T15:35:00.944Z,11.40
2017-12-22T15:37:43.527Z,20.43
2017-12-22T15:40:26.684Z,16.80
2017-12-22T15:43:09.039Z,15.57
2017-12-22T15:45:51.899Z,13.60
2017-12-22T15:48:34.416Z,17.90
2017-12-22T15:51:16.782Z,11.30
2017-12-22T15:53:59.726Z,20.20
2017-12-22T15:56:42.551Z,20.90
2017-12-22T15:59:25.437Z,24.37
2017-12-22T16:02:07.811Z,12.30
2017-12-22T16:04:56.714Z,17.00
2017-12-22T16:07:39.229Z,14.33
2017-12-22T16:10:29.654Z,14.80
2017-12-22T16:13:15.778Z,15.43
2017-12-22T16:15:58.259Z,12.30
2017-12-22T16:18:40.967Z,19.40
2017-12-22T16:21:23.535Z,11.53
2017-12-22T16:24:06.498Z,14.77
2017-12-22T16:26:48.975Z,17.43
2017-12-22T16:29:31.657Z,15.43
2017-12-22T16:32:14.248Z,12.00
2017-12-22T16:34:57.670Z,14.07
2017-12-22T16:37:41.686Z,23.03
2017-12-22T16:40:25.994Z,9.40
2017-12-22T16:43:09.011Z,11.10
2017-12-22T16:45:51.594Z,14.53
2017-12-22T16:48:34.523Z,9.63
2017-12-22T16:51:17.251Z,11.10
2017-12-22T16:54:00.240Z,10.47
2017-12-22T16:56:43.243Z,11.57
2017-12-22T16:59:25.723Z,11.07
2017-12-22T17:02:08.682Z,14.20
2017-12-22T17:04:51.246Z,7.17
2017-12-22T17:07:34.051Z,8.23
2017-12-22T17:10:16.951Z,15.87
2017-12-22T17:12:59.874Z,12.00
2017-12-22T17:15:42.987Z,10.27
2017-12-22T17:18:25.626Z,9.63
2017-12-22T17:21:14.141Z,5.63
2017-12-22T17:23:56.958Z,8.63
2017-12-22T17:26:45.858Z,5.80
2017-12-22T17:29:28.220Z,5.37
2017-12-22T17:32:11.098Z,6.83
2017-12-22T17:34:53.882Z,6.73
2017-12-22T17:37:46.522Z,8.40
2017-12-22T17:40:29.319Z,12.00
2017-12-22T17:43:11.995Z,8.20
2017-12-22T17:45:54.650Z,5.37
2017-12-22T17:48:37.342Z,5.83
2017-12-22T17:51:19.993Z,9.27
2017-12-22T17:54:02.932Z,7.70
2017-12-22T17:56:45.863Z,5.53
2017-12-22T17:59:32.213Z,7.60
2017-12-22T18:02:14.718Z,9.50
2017-12-22T18:04:57.597Z,9.80
2017-12-22T18:07:40.570Z,6.80
2017-12-22T18:10:23.193Z,5.20
2017-12-22T18:13:05.877Z,5.80
2017-12-22T18:15:48.503Z,4.70
2017-12-22T18:18:31.520Z,5.40
2017-12-22T18:21:17.992Z,6.27
2017-12-22T18:24:01.066Z,4.97
2017-12-22T18:26:43.619Z,4.87
2017-12-22T18:29:26.518Z,9.13
2017-12-22T18:32:09.242Z,6.30
2017-12-22T18:34:52.344Z,5.70
2017-12-22T18:37:34.794Z,2.70
2017-12-22T18:40:17.647Z,5.03
2017-12-22T18:43:00.350Z,5.10
2017-12-22T18:45:43.076Z,3.63
2017-12-22T18:48:26.186Z,4.00
2017-12-22T18:51:08.670Z,5.87
2017-12-22T18:53:51.715Z,3.40
2017-12-22T18:56:34.010Z,2.70
2017-12-22T18:59:16.560Z,5.20
2017-12-22T19:01:59.154Z,3.30
2017-12-22T19:04:49.058Z,3.17
2017-12-22T19:07:31.622Z,4.57
2017-12-22T19:10:14.683Z,2.57
2017-12-22T19:12:57.583Z,3.20
2017-12-22T19:15:40.043Z,4.27
2017-12-22T19:18:22.926Z,4.63
2017-12-22T19:21:16.291Z,7.20
2017-12-22T19:24:05.185Z,3.87
2017-12-22T19:26:47.824Z,3.90
2017-12-22T19:29:30.727Z,2.50
2017-12-22T19:32:13.352Z,2.73
2017-12-22T19:35:02.916Z,6.30
2017-12-22T19:37:45.090Z,3.20
2017-12-22T19:40:27.871Z,3.13
2017-12-22T19:43:10.754Z,2.87
2017-12-22T19:45:54.480Z,3.67
2017-12-22T19:48:37.017Z,3.23
2017-12-22T19:51:19.774Z,3.30
2017-12-22T19:54:02.497Z,2.53
2017-12-22T19:56:46.098Z,3.23
2017-12-22T19:59:29.010Z,3.60
2017-12-22T20:02:11.785Z,3.07
2017-12-22T20:04:55.064Z,2.73
2017-12-22T20:07:44.270Z,2.83
2017-12-22T20:10:27.099Z,5.70
2017-12-22T20:13:09.704Z,3.57
2017-12-22T20:15:52.582Z,3.93
2017-12-22T20:18:35.455Z,2.40
2017-12-22T20:21:18.236Z,3.07
2017-12-22T20:24:01.143Z,5.13
2017-12-22T20:26:43.793Z,2.77
2017-12-22T20:29:29.692Z,3.90
2017-12-22T20:32:13.065Z,3.63
2017-12-22T20:34:58.579Z,3.53
2017-12-22T20:37:41.510Z,2.63
2017-12-22T20:40:24.518Z,2.93
2017-12-22T20:43:08.906Z,3.30
2017-12-22T20:45:51.803Z,4.10
2017-12-22T20:48:34.559Z,3.10
2017-12-22T20:51:17.381Z,6.00
2017-12-22T20:54:01.634Z,3.40
2017-12-22T20:56:44.990Z,4.60
2017-12-22T20:59:27.370Z,3.80
2017-12-22T21:02:09.959Z,6.37
2017-12-22T21:04:54.757Z,4.27
2017-12-22T21:07:37.485Z,3.00
2017-12-22T21:10:33.489Z,4.83
2017-12-22T21:13:15.866Z,3.20
2017-12-22T21:15:58.621Z,7.07
2017-12-22T21:18:41.188Z,6.00
2017-12-22T21:21:24.116Z,4.80
2017-12-22T21:24:06.914Z,4.90
2017-12-22T21:26:49.382Z,11.13
2017-12-22T21:29:45.642Z,8.40
2017-12-22T21:32:28.615Z,4.70
2017-12-22T21:35:11.112Z,9.43
2017-12-22T21:37:53.829Z,5.17
2017-12-22T21:40:36.766Z,6.90
2017-12-22T21:43:19.670Z,9.67
2017-12-22T21:46:02.668Z,8.57
2017-12-22T21:48:45.350Z,5.63
2017-12-22T21:51:28.351Z,5.87
2017-12-22T21:54:11.234Z,8.03
2017-12-22T21:56:53.845Z,7.50
2017-12-22T21:59:36.608Z,5.50
2017-12-22T22:02:19.198Z,16.93
2017-12-22T22:05:02.242Z,6.23
2017-12-22T22:07:45.517Z,8.50
2017-12-22T22:10:28.231Z,6.10
2017-12-22T22:13:10.786Z,6.90
2017-12-22T22:15:53.521Z,8.60
2017-12-22T22:18:37.402Z,9.57
2017-12-22T22:21:20.306Z,12.23
2017-12-22T22:24:03.013Z,6.87
2017-12-22T22:26:45.802Z,7.70
2017-12-22T22:29:28.518Z,6.40
2017-12-22T22:32:11.217Z,6.97
2017-12-22T22:34:53.974Z,7.60
2017-12-22T22:37:37.699Z,5.80
2017-12-22T22:40:20.662Z,7.70
2017-12-22T22:43:03.248Z,9.20
2017-12-22T22:45:46.210Z,6.63
2017-12-22T22:48:29.130Z,7.60
2017-12-22T22:51:18.225Z,8.50
2017-12-22T22:54:01.078Z,12.00
2017-12-22T22:56:44.506Z,8.63
2017-12-22T22:59:27.426Z,9.60
2017-12-22T23:02:16.613Z,10.30
2017-12-22T23:04:59.133Z,7.20
2017-12-22T23:07:43.152Z,7.93
2017-12-22T23:10:26.059Z,9.63
2017-12-22T23:13:08.044Z,7.73
2017-12-22T23:16:03.781Z,10.20
2017-12-22T23:18:46.567Z,5.53
2017-12-22T23:21:29.355Z,8.47
2017-12-22T23:24:12.004Z,8.07
2017-12-22T23:26:54.632Z,9.20
2017-12-22T23:29:37.460Z,11.13
2017-12-22T23:32:21.967Z,11.70
2017-12-22T23:35:04.778Z,9.70
2017-12-22T23:37:47.508Z,8.30
2017-12-22T23:40:30.133Z,9.03
2017-12-22T23:43:13.045Z,6.67
2017-12-22T23:45:55.912Z,5.60
2017-12-22T23:48:38.605Z,8.10
2017-12-22T23:51:21.357Z,8.40
2017-12-22T23:54:03.666Z,6.00
2017-12-22T23:56:59.040Z,8.33
2017-12-22T23:59:43.571Z,14.80
